Latest Coastal Weather Observations for Cape Bruny AWS

IDT60701

Issued at 10:05 pm EST Wednesday 23 July 2014 (issued every 10 minutes, with the page automatically refreshed every 10 minutes)

About coastal observations | Map of coastal stations | Coastal observations for TAS | Marine services | Other Formats
Station Details ID: 094198 Name: CAPE BRUNY (CAPE BRUNY) Lat: -43.49 Lon: 147.14 Height: 59.7 m
Data from the previous 72 hours. | See also: Recent months at Cape Bruny AWS
Date/Time
EST
Temp

°C
Wind Pressure Rain
since 9am
mm
Weather Cloud Vis
km
Sea
Height
m
Swell
Dir
 
Speed
knots
Gust
knots
hPa Trend Height
m
Period
s
Dir
23/10:00pm 8.1 N 10 11 1020.8 - - - - - - - - -
23/09:30pm 7.9 NNE 6 8 1020.9 - - - - - - - - -
23/09:00pm 8.4 NW 4 5 1021.1 - 0.0 - - - - - - -
23/08:30pm 8.5 WNW 7 8 1021.1 - - - - - - - - -
23/08:00pm 8.7 WNW 6 8 1021.0 - - - - - - - - -
23/07:30pm 10.7 CALM 0 0 1020.8 - - - - - - - - -
23/07:00pm 10.2 CALM 0 0 1020.9 - - - - - - - - -
23/06:30pm 10.6 CALM 0 1 1020.9 - - - - - - - - -
23/06:00pm 9.8 S 3 3 1021.0 - - - - - - - - -
23/05:30pm 10.6 CALM 0 0 1020.8 - - - - - - - - -
23/05:00pm 11.0 S 1 3 1021.0 - - - - - - - - -
23/04:30pm 11.1 S 3 4 1020.7 - - - - - - - - -
23/04:00pm 11.5 ESE 4 5 1020.7 - - - - - - - - -
23/03:30pm 12.0 CALM 0 0 1020.6 - - - - - - - - -
23/03:00pm 12.0 NE 2 4 1020.8 - - - - - - - - -
23/02:30pm 11.8 NNE 5 7 1020.6 - - - - - - - - -
23/02:00pm 12.0 N 5 6 1020.8 - - - - - - - - -
23/01:30pm 13.1 N 7 8 1021.0 - - - - - - - - -
23/01:00pm 12.8 NNE 7 10 1021.5 - - - - - - - - -
23/12:30pm 13.0 NNE 7 9 1021.9 - - - - - - - - -
23/12:00pm 12.3 NNE 9 11 1022.4 - - - - - - - - -
23/11:30am 11.6 NNE 9 12 1022.7 - 0.0 - - - - - - -
23/11:00am 10.9 N 10 12 1023.2 - 0.0 - - - - - - -
23/10:30am 10.6 N 9 12 1023.4 - 0.0 - - - - - - -
23/10:00am 10.0 N 8 11 1023.7 - 0.0 - - - - - - -
23/09:30am 9.4 N 8 11 1023.5 - 0.0 - - - - - - -
23/09:00am 9.1 N 8 10 1023.6 - - - - - - - - -
23/08:00am 7.5 N 11 12 1023.5 - - - - - - - - -
23/07:30am 7.1 N 11 11 1023.3 - - - - - - - - -
23/05:00am 7.1 N 9 11 1023.3 - - - - - - - - -
23/04:30am 7.3 N 9 10 1023.2 - - - - - - - - -
23/03:00am 7.5 N 10 11 1023.3 - 0.0 - - - - - - -
23/02:30am 7.8 N 10 11 1023.2 - - - - - - - - -
23/02:00am 8.2 N 9 10 1023.4 - - - - - - - - -
23/01:30am 7.9 N 10 12 1023.2 - - - - - - - - -
23/01:00am 8.1 N 10 11 1023.4 - - - - - - - - -
23/12:30am 8.4 N 10 13 1023.5 - - - - - - - - -
23/12:00am 8.3 N 9 11 1023.8 - - - - - - - - -
 
Date/Time
EST
Temp

°C
Wind Pressure Rain
since 9am
mm
Weather Cloud Vis
km
Sea
Height
m
Swell
Dir
 
Speed
knots
Gust
knots
hPa Trend Height
m
Period
s
Dir
22/11:30pm 8.5 N 7 10 1023.8 - - - - - - - - -
22/11:00pm 8.6 N 9 10 1024.0 - - - - - - - - -
22/10:30pm 8.4 N 9 10 1023.9 - - - - - - - - -
22/10:00pm 8.5 N 4 5 1024.0 - - - - - - - - -
22/09:30pm 9.0 N 8 10 1024.0 - - - - - - - - -
22/09:00pm 8.8 N 9 11 1024.0 - - - - - - - - -
22/08:30pm 9.0 N 9 11 1023.8 - - - - - - - - -
22/08:00pm 8.2 N 8 9 1023.7 - - - - - - - - -
22/07:30pm 8.1 N 8 9 1023.6 - - - - - - - - -
22/07:00pm 8.8 NNW 7 9 1023.8 - - - - - - - - -
22/06:30pm 9.0 NNW 8 10 1023.7 - - - - - - - - -
22/06:00pm 9.4 NNW 8 9 1023.8 - - - - - - - - -
22/05:00pm 8.8 N 6 7 1023.5 - - - - - - - - -
22/04:30pm 9.6 N 6 7 1023.3 - - - - - - - - -
22/03:30pm 10.3 N 7 9 1023.4 - - - - - - - - -
22/03:00pm 10.1 N 7 8 1023.4 - - - - - - - - -
22/02:30pm 10.5 N 7 9 1023.2 - - - - - - - - -
22/02:00pm 10.2 N 7 9 1023.3 - - - - - - - - -
22/01:30pm 9.4 N 9 11 1023.4 - - - - - - - - -
22/01:00pm 9.5 N 7 9 1023.9 - - - - - - - - -
22/12:30pm 9.3 N 8 10 1024.0 - - - - - - - - -
22/12:00pm 8.7 N 11 14 1024.6 - - - - - - - - -
22/11:30am 7.9 N 11 14 1024.7 - 0.0 - - - - - - -
22/11:00am 7.1 N 11 15 1025.4 - 0.0 - - - - - - -
22/10:30am 7.2 N 11 14 1025.4 - 0.0 - - - - - - -
22/10:00am 6.6 N 13 16 1025.4 - 0.0 - - - - - - -
22/09:30am 6.0 N 14 17 1025.3 - 0.0 - - - - - - -
22/09:00am 5.5 N 12 15 1025.4 - - Recent precip. - - - - - -
22/08:30am 5.0 N 14 17 1025.5 - - - - - - - - -
22/08:00am 4.8 - - - 1025.4 - - - - - - - - -
22/07:00am 4.5 N 12 16 1024.8 - - - - - - - - -
22/06:00am 4.7 - - - 1024.3 - - - - - - - - -
22/05:30am 4.5 - - - 1024.2 - - - - - - - - -
22/04:30am 4.7 N 11 13 1024.3 - - - - - - - - -
22/03:00am 5.4 - - - 1024.6 - - - - - - - - -
22/12:30am 5.9 - - - 1025.1 - - - - - - - - -
22/12:00am 6.1 - - - 1025.3 - - - - - - - - -
 
Date/Time
EST
Temp

°C
Wind Pressure Rain
since 9am
mm
Weather Cloud Vis
km
Sea
Height
m
Swell
Dir
 
Speed
knots
Gust
knots
hPa Trend Height
m
Period
s
Dir
21/11:30pm 6.4 N 10 12 1025.4 - - - - - - - - -
21/11:00pm 6.5 N 10 12 1025.5 - - - - - - - - -
21/10:30pm 6.7 N 11 11 1025.4 - - - - - - - - -
21/10:00pm 6.6 N 10 11 1025.5 - - - - - - - - -
21/09:30pm 6.8 N 10 12 1025.4 - - - - - - - - -
21/09:00pm 7.1 N 10 11 1025.4 - - - - - - - - -
21/08:30pm 7.5 N 7 7 1025.4 - - - - - - - - -
21/08:00pm 7.4 N 5 5 1025.7 - - - - - - - - -
21/07:30pm 7.3 NNE 4 5 1025.6 - - - - - - - - -
21/07:00pm 8.3 NNE 2 4 1025.8 - - - - - - - - -
21/06:30pm 8.3 ENE 2 4 1025.6 - - - - - - - - -
21/06:00pm 8.9 SSW 1 4 1025.6 - - - - - - - - -
21/05:30pm 9.0 SSW 3 4 1025.3 - - - - - - - - -
21/05:00pm 8.6 SSW 3 5 1025.4 - - - - - - - - -
21/04:30pm 9.2 S 4 5 1025.1 - - - - - - - - -
21/04:00pm 10.2 SE 3 6 1025.0 - - - - - - - - -
21/03:30pm 10.6 ESE 5 7 1024.8 - - - - - - - - -
21/03:00pm 10.6 ESE 5 7 1024.9 - - - - - - - - -
21/02:30pm 11.2 E 4 6 1024.6 - - - - - - - - -
21/02:00pm 10.9 NNE 5 6 1024.8 - - - - - - - - -
21/01:30pm 10.6 N 7 8 1024.9 - - - - - - - - -
21/01:00pm 9.4 N 8 11 1025.2 - - - - - - - - -
21/12:30pm 9.3 N 9 11 1025.4 - - - - - - - - -
21/12:00pm 8.4 N 10 13 1025.7 - - - - - - - - -
21/11:30am 7.6 N 11 14 1026.0 - 0.0 - - - - - - -
21/11:00am 7.7 N 12 15 1026.5 - 0.0 - - - - - - -
21/10:30am 7.2 N 13 16 1026.4 - 0.0 - - - - - - -
21/10:00am 6.6 N 13 16 1026.5 - 0.0 - - - - - - -
21/09:30am 6.4 N 13 16 1026.5 - 0.0 - - - - - - -
21/09:00am 5.6 N 12 16 1026.6 - - - - - - - - -
21/08:30am 5.3 N 13 15 1026.5 - - - - - - - - -
21/08:00am 4.9 N 13 15 1026.5 - - - - - - - - -
21/07:30am 4.6 N 13 15 1026.2 - - - - - - - - -
21/07:00am 4.9 N 13 15 1026.2 - - - - - - - - -
21/06:30am 5.0 N 13 16 1026.0 - - - - - - - - -
21/06:00am 5.2 - - - 1026.1 - - - - - - - - -
21/05:30am 5.4 - - - 1025.8 - - - - - - - - -
21/05:00am 5.5 - - - 1025.9 - - - - - - - - -
21/04:30am 5.7 N 12 14 1025.7 - - - - - - - - -
21/03:30am 5.6 - - - 1025.6 - - - - - - - - -
21/03:00am 5.8 N 11 13 1026.1 - - - - - - - - -
21/01:00am 6.2 N 8 9 1026.1 - - - - - - - - -
21/12:30am 6.5 N 8 9 1026.2 - - - - - - - - -
 
Date/Time
EST
Temp

°C
Wind Pressure Rain
since 9am
mm
Weather Cloud Vis
km
Sea
Height
m
Swell
Dir
 
Speed
knots
Gust
knots
hPa Trend Height
m
Period
s
Dir
20/11:30pm 6.7 - - - 1026.5 - - - - - - - - -
20/11:00pm 8.4 CALM 0 0 1026.6 - - - - - - - - -
20/10:30pm 8.8 CALM 0 3 1026.5 - - - - - - - - -

Other Formats:

Comma delimited format used in spreadsheet applications
http://www.bom.gov.au/fwo/IDT60701/IDT60701.95967.axf

JavaScript Object Notation format (JSON) in row-major order
http://www.bom.gov.au/fwo/IDT60701/IDT60701.95967.json